createdAt,value
2022-10-31T00:00:09.488Z,12.70
2022-10-31T00:02:11.222Z,12.90
2022-10-31T00:04:13.001Z,11.88
2022-10-31T00:06:14.722Z,11.68
2022-10-31T00:08:16.963Z,10.18
2022-10-31T00:10:18.426Z,10.45
2022-10-31T00:12:21.269Z,11.63
2022-10-31T00:14:22.750Z,11.38
2022-10-31T00:16:25.782Z,11.93
2022-10-31T00:18:27.337Z,10.80
2022-10-31T00:20:30.222Z,11.27
2022-10-31T00:22:31.707Z,11.02
2022-10-31T00:24:33.235Z,9.98
2022-10-31T00:26:34.957Z,11.18
2022-10-31T00:28:37.902Z,10.07
2022-10-31T00:30:39.774Z,11.40
2022-10-31T00:32:41.285Z,9.98
2022-10-31T00:34:42.773Z,10.38
2022-10-31T00:36:44.346Z,9.98
2022-10-31T00:38:47.132Z,9.85
2022-10-31T00:40:48.788Z,10.63
2022-10-31T00:42:50.409Z,10.60
2022-10-31T00:44:53.315Z,9.43
2022-10-31T00:46:54.870Z,10.30
2022-10-31T00:48:56.385Z,10.68
2022-10-31T00:51:00.753Z,9.80
2022-10-31T00:53:02.234Z,9.13
2022-10-31T00:55:04.372Z,10.88
2022-10-31T00:57:06.015Z,9.43
2022-10-31T00:59:07.508Z,10.77
2022-10-31T01:01:10.528Z,11.02
2022-10-31T01:03:12.128Z,10.65
2022-10-31T01:05:13.683Z,11.20
2022-10-31T01:07:15.239Z,11.10
2022-10-31T01:09:16.785Z,12.63
2022-10-31T01:11:21.501Z,12.15
2022-10-31T01:13:23.026Z,10.10
2022-10-31T01:15:24.651Z,10.82
2022-10-31T01:17:27.505Z,10.93
2022-10-31T01:19:29.068Z,11.45
2022-10-31T01:21:34.514Z,11.00
2022-10-31T01:23:37.108Z,11.38
2022-10-31T01:25:38.656Z,10.57
2022-10-31T01:27:40.176Z,11.50
2022-10-31T01:29:41.654Z,10.75
2022-10-31T01:31:43.268Z,12.43
2022-10-31T01:33:48.583Z,11.45
2022-10-31T01:35:50.076Z,10.93
2022-10-31T01:37:51.632Z,11.98
2022-10-31T01:39:53.186Z,12.05
2022-10-31T01:41:55.213Z,11.90
2022-10-31T01:43:59.255Z,11.05
2022-10-31T01:46:00.893Z,11.57
2022-10-31T01:48:02.841Z,11.85
2022-10-31T01:50:13.143Z,12.63
2022-10-31T01:52:21.106Z,11.27
2022-10-31T01:54:24.946Z,10.82
2022-10-31T01:56:27.089Z,9.70
2022-10-31T01:58:31.995Z,10.07
2022-10-31T02:00:33.979Z,9.27
2022-10-31T02:02:36.106Z,8.95
2022-10-31T02:04:38.070Z,10.57
2022-10-31T02:06:47.434Z,11.00
2022-10-31T02:08:49.212Z,10.13
2022-10-31T02:10:53.892Z,9.63
2022-10-31T02:12:59.038Z,8.73
2022-10-31T02:15:01.768Z,8.93
2022-10-31T02:17:03.363Z,9.40
2022-10-31T02:19:09.424Z,10.23
2022-10-31T02:21:19.364Z,9.40
2022-10-31T02:23:50.308Z,10.05
2022-10-31T02:26:19.727Z,9.95
2022-10-31T02:28:47.110Z,10.32
2022-10-31T02:31:04.129Z,10.10
2022-10-31T02:33:21.231Z,8.88
2022-10-31T02:35:35.600Z,8.65
2022-10-31T02:37:44.572Z,8.55
2022-10-31T02:39:55.101Z,9.23
2022-10-31T02:42:04.942Z,10.50
2022-10-31T02:44:11.148Z,10.90
2022-10-31T02:46:20.260Z,9.93
2022-10-31T02:48:26.285Z,9.05
2022-10-31T02:50:31.905Z,10.57
2022-10-31T02:52:35.125Z,10.98
2022-10-31T02:54:37.156Z,11.52
2022-10-31T02:56:39.109Z,11.35
2022-10-31T02:58:46.330Z,10.68
2022-10-31T03:01:05.001Z,10.63
2022-10-31T03:03:15.754Z,10.02
2022-10-31T03:05:29.848Z,11.07
2022-10-31T03:09:48.733Z,11.18
2022-10-31T03:11:58.424Z,10.43
2022-10-31T03:14:12.589Z,10.35
2022-10-31T03:16:17.015Z,9.90
2022-10-31T03:18:24.246Z,10.40
2022-10-31T03:20:34.486Z,11.57
2022-10-31T03:22:39.749Z,10.70
2022-10-31T03:24:42.823Z,11.15
2022-10-31T03:26:47.831Z,11.93
2022-10-31T03:28:54.592Z,11.48
2022-10-31T03:30:58.202Z,11.02
2022-10-31T03:33:04.112Z,12.15
2022-10-31T03:35:10.763Z,12.13
2022-10-31T03:37:17.781Z,11.40
2022-10-31T03:39:22.325Z,11.73
2022-10-31T03:41:29.195Z,10.68
2022-10-31T03:43:38.336Z,9.60
2022-10-31T03:45:44.069Z,9.57
2022-10-31T03:47:45.629Z,9.68
2022-10-31T03:49:47.190Z,9.48
2022-10-31T03:51:55.786Z,9.57
2022-10-31T03:54:03.409Z,9.30
2022-10-31T03:56:12.280Z,7.90
2022-10-31T03:58:22.347Z,9.05
2022-10-31T04:00:24.194Z,9.75
2022-10-31T04:02:32.114Z,9.57
2022-10-31T04:04:38.031Z,10.60
2022-10-31T04:06:42.690Z,10.07
2022-10-31T04:08:50.042Z,10.52
2022-10-31T04:10:53.638Z,8.95
2022-10-31T04:13:02.929Z,8.20
2022-10-31T04:15:08.391Z,9.15
2022-10-31T04:17:19.213Z,9.60
2022-10-31T04:19:20.747Z,9.00
2022-10-31T04:21:28.333Z,10.18
2022-10-31T04:23:29.985Z,10.35
2022-10-31T04:25:32.849Z,10.48
2022-10-31T04:27:34.453Z,10.15
2022-10-31T04:29:35.988Z,12.32
2022-10-31T04:31:37.478Z,11.13
2022-10-31T04:33:39.044Z,10.40
2022-10-31T04:35:41.018Z,9.48
2022-10-31T04:37:51.552Z,10.52
2022-10-31T04:39:53.084Z,11.52
2022-10-31T04:41:55.921Z,11.40
2022-10-31T04:43:57.456Z,11.93
2022-10-31T04:45:58.973Z,10.88
2022-10-31T04:48:00.773Z,10.70
2022-10-31T04:50:03.194Z,10.30
2022-10-31T04:52:04.889Z,11.52
2022-10-31T04:54:06.499Z,11.35
2022-10-31T04:56:08.123Z,11.45
2022-10-31T04:58:11.656Z,10.18
2022-10-31T05:00:15.263Z,10.77
2022-10-31T05:02:18.698Z,10.77
2022-10-31T05:04:20.336Z,10.60
2022-10-31T05:06:21.847Z,10.60
2022-10-31T05:08:23.333Z,9.85
2022-10-31T05:10:27.853Z,9.52
2022-10-31T05:12:29.304Z,10.00
2022-10-31T05:14:32.156Z,9.20
2022-10-31T05:16:33.705Z,8.90
2022-10-31T05:18:35.285Z,8.13
2022-10-31T05:20:36.778Z,8.93
2022-10-31T05:22:38.428Z,8.90
2022-10-31T05:24:39.962Z,8.05
2022-10-31T05:26:41.975Z,8.10
2022-10-31T05:28:43.513Z,7.47
2022-10-31T05:30:46.442Z,7.93
2022-10-31T05:32:49.572Z,8.52
2022-10-31T05:34:51.117Z,9.02
2022-10-31T05:36:52.642Z,9.70
2022-10-31T05:38:54.175Z,9.73
2022-10-31T05:40:58.215Z,9.27
2022-10-31T05:43:02.574Z,9.70
2022-10-31T05:45:05.151Z,9.93
2022-10-31T05:47:08.090Z,9.35
2022-10-31T05:49:09.622Z,9.98
2022-10-31T05:51:11.105Z,9.70
2022-10-31T05:53:12.623Z,9.02
2022-10-31T05:55:14.335Z,10.00
2022-10-31T05:57:15.830Z,8.70
2022-10-31T05:59:20.442Z,9.73
2022-10-31T06:01:22.094Z,9.55
2022-10-31T06:03:26.274Z,9.63
2022-10-31T06:05:28.245Z,9.10
2022-10-31T06:07:33.343Z,9.35
2022-10-31T06:09:34.808Z,8.90
2022-10-31T06:11:36.360Z,9.80
2022-10-31T06:13:37.823Z,9.07
2022-10-31T06:15:39.340Z,8.30
2022-10-31T06:17:40.953Z,8.13
2022-10-31T06:19:43.954Z,8.63
2022-10-31T06:21:45.464Z,7.38
2022-10-31T06:23:48.874Z,8.35
2022-10-31T06:25:52.223Z,8.60
2022-10-31T06:27:53.857Z,8.23
2022-10-31T06:29:55.385Z,8.05
2022-10-31T06:31:56.965Z,8.95
2022-10-31T06:33:58.507Z,9.20
2022-10-31T06:36:01.695Z,8.65
2022-10-31T06:38:03.838Z,9.75
2022-10-31T06:40:06.457Z,10.30
2022-10-31T06:42:08.026Z,10.75
2022-10-31T06:44:09.583Z,10.02
2022-10-31T06:46:11.125Z,9.73
2022-10-31T06:48:17.203Z,10.00
2022-10-31T06:50:24.205Z,9.98
2022-10-31T06:52:27.107Z,9.77
2022-10-31T06:54:28.691Z,9.63
2022-10-31T06:56:30.176Z,9.15
2022-10-31T06:58:31.697Z,9.20
2022-10-31T07:00:33.887Z,7.78
2022-10-31T07:02:35.475Z,9.15
2022-10-31T07:04:37.074Z,7.88
2022-10-31T07:06:39.003Z,8.60
2022-10-31T07:08:41.988Z,8.80
2022-10-31T07:10:44.006Z,8.55
2022-10-31T07:12:45.560Z,7.80
2022-10-31T07:14:47.020Z,8.13
2022-10-31T07:16:50.183Z,14.05
2022-10-31T07:18:51.936Z,8.70
2022-10-31T07:20:54.011Z,9.30
2022-10-31T07:22:55.592Z,10.88
2022-10-31T07:24:58.775Z,9.30
2022-10-31T07:27:03.225Z,8.73
2022-10-31T07:29:04.829Z,9.40
2022-10-31T07:31:06.947Z,8.05
2022-10-31T07:33:09.514Z,8.45
2022-10-31T07:35:13.128Z,11.98
2022-10-31T07:37:14.802Z,8.85
2022-10-31T07:39:16.377Z,8.48
2022-10-31T07:41:21.744Z,8.60
2022-10-31T07:43:23.325Z,10.13
2022-10-31T07:45:25.011Z,9.38
2022-10-31T07:47:29.480Z,9.68
2022-10-31T07:49:31.433Z,8.48
2022-10-31T07:51:33.073Z,7.82
2022-10-31T07:53:34.592Z,8.73
2022-10-31T07:55:37.102Z,8.45
2022-10-31T07:57:40.034Z,9.00
2022-10-31T07:59:41.583Z,8.20
2022-10-31T08:01:43.123Z,8.43
2022-10-31T08:03:44.728Z,9.13
2022-10-31T08:05:46.604Z,8.27
2022-10-31T08:07:48.169Z,9.07
2022-10-31T08:09:49.805Z,23.40
2022-10-31T08:11:51.331Z,13.15
2022-10-31T08:13:54.305Z,10.52
2022-10-31T08:15:55.913Z,10.25
2022-10-31T08:17:57.926Z,8.80
2022-10-31T08:19:59.744Z,19.75
2022-10-31T08:22:01.322Z,8.98
2022-10-31T08:24:02.898Z,11.63
2022-10-31T08:26:04.720Z,13.85
2022-10-31T08:28:07.109Z,15.55
2022-10-31T08:30:11.278Z,11.52
2022-10-31T08:32:12.939Z,10.93
2022-10-31T08:34:14.729Z,10.32
2022-10-31T08:36:16.307Z,8.95
2022-10-31T08:38:18.088Z,10.70
2022-10-31T08:40:23.024Z,10.43
2022-10-31T08:42:24.600Z,10.13
2022-10-31T08:44:26.253Z,10.80
2022-10-31T08:46:29.469Z,10.40
2022-10-31T08:48:31.080Z,11.18
2022-10-31T08:50:34.560Z,17.40
2022-10-31T08:53:02.833Z,26.80
2022-10-31T08:54:57.901Z,16.63
2022-10-31T08:56:59.512Z,15.27
2022-10-31T08:59:04.425Z,11.18
2022-10-31T09:01:06.288Z,10.82
2022-10-31T09:03:12.544Z,10.95
2022-10-31T09:05:14.317Z,11.95
2022-10-31T09:07:23.282Z,11.30
2022-10-31T09:09:25.474Z,11.60
2022-10-31T09:11:27.081Z,11.60
2022-10-31T09:13:30.566Z,11.80
2022-10-31T09:15:32.307Z,11.55
2022-10-31T09:17:36.416Z,11.93
2022-10-31T09:19:39.390Z,11.80
2022-10-31T09:21:41.244Z,10.05
2022-10-31T09:23:43.074Z,11.70
2022-10-31T09:25:50.023Z,12.95
2022-10-31T09:27:52.260Z,11.43
2022-10-31T09:29:53.842Z,10.65
2022-10-31T09:31:57.030Z,11.88
2022-10-31T09:33:58.636Z,11.20
2022-10-31T09:36:01.704Z,11.45
2022-10-31T09:38:05.015Z,10.52
2022-10-31T09:40:07.075Z,14.68
2022-10-31T09:42:29.942Z,14.60
2022-10-31T09:44:45.215Z,12.05
2022-10-31T09:46:54.492Z,12.27
2022-10-31T09:49:17.625Z,17.52
2022-10-31T09:51:24.447Z,12.15
2022-10-31T09:53:33.121Z,12.30
2022-10-31T09:55:38.051Z,12.98
2022-10-31T09:57:42.503Z,12.52
2022-10-31T09:59:45.940Z,12.18
2022-10-31T10:01:51.879Z,12.40
2022-10-31T10:03:58.415Z,11.38
2022-10-31T10:06:14.050Z,13.00
2022-10-31T10:08:20.650Z,14.77
2022-10-31T10:10:30.140Z,12.43
2022-10-31T10:12:44.329Z,16.33
2022-10-31T10:14:57.512Z,14.70
2022-10-31T10:17:13.090Z,11.70
2022-10-31T10:19:31.278Z,11.52
2022-10-31T10:21:42.914Z,12.35
2022-10-31T10:23:57.991Z,12.30
2022-10-31T10:26:13.852Z,12.80
2022-10-31T10:28:22.163Z,11.93
2022-10-31T10:30:31.249Z,12.95
2022-10-31T10:32:40.157Z,12.35
2022-10-31T10:34:46.453Z,12.55
2022-10-31T10:36:53.017Z,12.25
2022-10-31T10:39:00.989Z,12.40
2022-10-31T10:41:06.408Z,11.75
2022-10-31T10:43:32.829Z,12.40
2022-10-31T10:45:34.550Z,12.05
2022-10-31T10:47:42.211Z,11.13
2022-10-31T10:54:53.810Z,12.20
2022-10-31T10:57:06.799Z,12.40
2022-10-31T10:59:12.906Z,12.88
2022-10-31T11:03:25.669Z,13.80
2022-10-31T11:05:36.269Z,17.13
2022-10-31T11:07:40.851Z,13.68
2022-10-31T11:09:43.795Z,13.88
2022-10-31T11:11:45.570Z,12.68
2022-10-31T11:13:50.152Z,13.63
2022-10-31T11:15:56.718Z,13.35
2022-10-31T11:17:58.670Z,13.50
2022-10-31T11:20:06.316Z,14.52
2022-10-31T11:24:15.931Z,13.10
2022-10-31T11:26:21.585Z,13.65
2022-10-31T11:28:23.393Z,12.98
2022-10-31T11:30:27.750Z,13.82
2022-10-31T11:32:29.284Z,12.48
2022-10-31T11:34:33.789Z,13.70
2022-10-31T11:36:40.231Z,14.13
2022-10-31T11:38:43.651Z,12.55
2022-10-31T11:40:58.627Z,11.73
2022-10-31T11:43:01.883Z,13.95
2022-10-31T11:45:14.623Z,13.80
2022-10-31T11:47:24.489Z,14.18
2022-10-31T11:49:31.206Z,14.60
2022-10-31T11:51:35.586Z,14.20
2022-10-31T11:53:39.580Z,15.00
2022-10-31T11:55:41.112Z,14.25
2022-10-31T11:57:45.712Z,13.05
2022-10-31T11:59:53.672Z,13.43
2022-10-31T12:01:57.371Z,12.48
2022-10-31T12:04:07.377Z,14.25
2022-10-31T12:06:13.260Z,13.57
2022-10-31T12:08:14.874Z,12.45
2022-10-31T12:10:21.327Z,11.75
2022-10-31T12:12:51.774Z,13.00
2022-10-31T12:15:10.790Z,12.77
2022-10-31T12:17:16.306Z,14.25
2022-10-31T12:19:28.831Z,11.93
2022-10-31T12:21:53.165Z,11.70
2022-10-31T12:24:04.985Z,11.82
2022-10-31T12:26:16.473Z,10.68
2022-10-31T12:28:46.410Z,13.07
2022-10-31T12:31:10.675Z,10.52
2022-10-31T12:33:24.369Z,11.40
2022-10-31T12:35:41.922Z,11.18
2022-10-31T12:38:06.006Z,11.68
2022-10-31T12:40:29.042Z,10.95
2022-10-31T12:42:46.609Z,11.95
2022-10-31T12:45:04.914Z,10.50
2022-10-31T12:47:27.402Z,10.27
2022-10-31T12:49:43.110Z,11.55
2022-10-31T12:51:51.918Z,11.25
2022-10-31T12:54:14.601Z,12.10
2022-10-31T12:56:32.571Z,14.65
2022-10-31T12:58:39.619Z,12.50
2022-10-31T13:00:48.838Z,12.75
2022-10-31T13:02:55.761Z,12.57
2022-10-31T13:05:02.709Z,14.52
2022-10-31T13:07:09.503Z,13.45
2022-10-31T13:09:15.691Z,12.13
2022-10-31T13:11:22.439Z,14.00
2022-10-31T13:13:28.421Z,11.70
2022-10-31T13:15:42.146Z,11.73
2022-10-31T13:17:48.036Z,10.88
2022-10-31T13:19:52.801Z,11.50
2022-10-31T13:22:04.066Z,11.50
2022-10-31T13:24:13.261Z,10.35
2022-10-31T13:26:22.510Z,11.98
2022-10-31T13:28:34.664Z,11.25
2022-10-31T13:30:40.986Z,10.05
2022-10-31T13:32:49.748Z,12.32
2022-10-31T13:34:56.006Z,12.20
2022-10-31T13:37:05.226Z,11.25
2022-10-31T13:39:24.515Z,9.65
2022-10-31T13:41:41.499Z,12.20
2022-10-31T13:44:01.689Z,10.63
2022-10-31T13:48:20.841Z,11.75
2022-10-31T13:50:26.168Z,11.45
2022-10-31T13:52:27.995Z,13.25
2022-10-31T13:54:34.328Z,12.02
2022-10-31T13:56:36.046Z,11.73
2022-10-31T13:58:38.915Z,11.35
2022-10-31T14:00:44.587Z,12.32
2022-10-31T14:02:48.580Z,12.23
2022-10-31T14:07:08.930Z,9.45
2022-10-31T14:09:26.849Z,11.93
2022-10-31T14:11:34.539Z,12.25
2022-10-31T14:13:44.119Z,12.10
2022-10-31T14:15:55.208Z,10.70
2022-10-31T14:18:04.554Z,11.50
2022-10-31T14:20:33.043Z,10.88
2022-10-31T14:22:42.355Z,10.35
2022-10-31T14:24:44.701Z,11.52
2022-10-31T14:26:53.997Z,11.55
2022-10-31T14:28:57.323Z,11.60
2022-10-31T14:31:00.825Z,12.25
2022-10-31T14:33:21.285Z,11.60
2022-10-31T14:35:26.483Z,12.80
2022-10-31T14:37:56.327Z,11.88
2022-10-31T14:40:18.489Z,10.75
2022-10-31T14:42:34.831Z,12.52
2022-10-31T14:44:50.282Z,12.27
2022-10-31T14:47:00.379Z,10.25
2022-10-31T14:49:31.166Z,11.13
2022-10-31T14:51:39.456Z,12.25
2022-10-31T14:53:47.748Z,11.80
2022-10-31T14:55:52.430Z,14.30
2022-10-31T14:58:00.611Z,12.02
2022-10-31T15:00:05.240Z,12.40
2022-10-31T15:02:15.886Z,13.82
2022-10-31T15:04:24.072Z,13.65
2022-10-31T15:06:27.398Z,14.57
2022-10-31T15:08:34.320Z,14.98
2022-10-31T15:10:38.331Z,15.60
2022-10-31T15:12:42.805Z,16.13
2022-10-31T15:14:44.379Z,15.77
2022-10-31T15:16:48.932Z,16.02
2022-10-31T15:18:56.092Z,18.77
2022-10-31T15:20:59.436Z,15.10
2022-10-31T15:23:01.482Z,15.05
2022-10-31T15:25:03.427Z,15.23
2022-10-31T15:27:11.547Z,14.82
2022-10-31T15:29:17.186Z,16.55
2022-10-31T15:31:19.036Z,17.45
2022-10-31T15:33:22.856Z,18.38
2022-10-31T15:35:27.165Z,17.35
2022-10-31T15:37:31.791Z,15.52
2022-10-31T15:39:33.360Z,17.92
2022-10-31T15:41:36.947Z,19.10
2022-10-31T15:43:40.992Z,18.00
2022-10-31T15:45:43.475Z,18.02
2022-10-31T15:47:49.133Z,17.20
2022-10-31T15:49:54.949Z,16.27
2022-10-31T15:51:56.734Z,17.38
2022-10-31T15:53:59.470Z,18.35
2022-10-31T15:56:04.776Z,16.23
2022-10-31T15:58:12.797Z,17.10
2022-10-31T16:00:25.805Z,19.27
2022-10-31T16:02:28.314Z,17.80
2022-10-31T16:04:30.793Z,17.55
2022-10-31T16:06:34.705Z,18.60
2022-10-31T16:08:37.883Z,16.35
2022-10-31T16:10:41.779Z,17.50
2022-10-31T16:12:45.765Z,18.98
2022-10-31T16:14:47.730Z,18.98
2022-10-31T16:16:53.094Z,18.98
2022-10-31T16:18:56.522Z,33.60
2022-10-31T16:20:58.567Z,20.77
2022-10-31T16:23:00.809Z,18.35
2022-10-31T16:25:09.705Z,17.67
2022-10-31T16:27:19.454Z,20.73
2022-10-31T16:29:27.266Z,18.42
2022-10-31T16:31:31.677Z,19.35
2022-10-31T16:33:36.082Z,18.98
2022-10-31T16:35:39.259Z,20.17
2022-10-31T16:37:41.485Z,20.10
2022-10-31T16:39:43.005Z,22.90
2022-10-31T16:41:49.659Z,23.83
2022-10-31T16:43:52.621Z,22.75
2022-10-31T16:45:54.131Z,21.13
2022-10-31T16:48:03.926Z,21.52
2022-10-31T16:50:17.008Z,19.42
2022-10-31T16:52:18.728Z,22.60
2022-10-31T16:54:20.302Z,19.48
2022-10-31T16:56:31.329Z,21.55
2022-10-31T16:58:35.344Z,20.52
2022-10-31T17:00:37.263Z,20.65
2022-10-31T17:02:39.082Z,22.88
2022-10-31T17:04:40.596Z,20.65
2022-10-31T17:06:43.524Z,22.80
2022-10-31T17:08:45.064Z,20.80
2022-10-31T17:10:48.619Z,21.30
2022-10-31T17:12:51.170Z,20.23
2022-10-31T17:14:52.940Z,20.90
2022-10-31T17:17:01.925Z,22.25
2022-10-31T17:19:03.674Z,21.50
2022-10-31T17:21:05.920Z,23.08
2022-10-31T17:23:10.033Z,23.75
2022-10-31T17:25:14.573Z,20.95
2022-10-31T17:27:16.116Z,21.60
2022-10-31T17:29:17.624Z,21.67
2022-10-31T17:31:22.073Z,22.50
2022-10-31T17:33:23.788Z,21.65
2022-10-31T17:35:25.713Z,22.27
2022-10-31T17:37:27.211Z,21.63
2022-10-31T17:39:30.093Z,22.20
2022-10-31T17:41:31.555Z,20.13
2022-10-31T17:43:33.079Z,22.83
2022-10-31T17:45:34.681Z,21.73
2022-10-31T17:47:36.290Z,20.63
2022-10-31T17:49:40.063Z,22.90
2022-10-31T17:51:41.793Z,22.95
2022-10-31T17:53:43.387Z,20.55
2022-10-31T17:55:46.431Z,20.75
2022-10-31T17:57:48.050Z,22.75
2022-10-31T17:59:49.596Z,22.67
2022-10-31T18:01:51.241Z,22.20
2022-10-31T18:03:52.822Z,23.55
2022-10-31T18:05:56.743Z,21.85
2022-10-31T18:08:03.782Z,22.17
2022-10-31T18:12:09.425Z,22.00
2022-10-31T18:14:11.162Z,22.70
2022-10-31T18:16:15.033Z,22.30
2022-10-31T18:18:16.853Z,21.50
2022-10-31T18:20:18.389Z,23.27
2022-10-31T18:22:22.584Z,23.95
2022-10-31T18:24:24.247Z,22.77
2022-10-31T18:26:27.552Z,21.65
2022-10-31T18:28:30.544Z,25.60
2022-10-31T18:30:32.656Z,22.02
2022-10-31T18:32:34.359Z,21.42
2022-10-31T18:34:36.035Z,22.35
2022-10-31T18:36:37.573Z,21.75
2022-10-31T18:38:40.069Z,21.38
2022-10-31T18:40:41.648Z,21.60
2022-10-31T18:42:43.276Z,22.40
2022-10-31T18:44:46.194Z,21.65
2022-10-31T18:46:50.562Z,22.38
2022-10-31T18:48:52.237Z,22.67
2022-10-31T18:50:53.868Z,21.77
2022-10-31T18:52:55.946Z,22.15
2022-10-31T18:54:57.475Z,22.33
2022-10-31T18:56:58.992Z,22.15
2022-10-31T18:59:02.526Z,30.80
2022-10-31T19:01:08.127Z,23.25
2022-10-31T19:03:09.833Z,21.17
2022-10-31T19:05:14.415Z,25.20
2022-10-31T19:07:15.993Z,22.25
2022-10-31T19:09:17.647Z,23.10
2022-10-31T19:11:19.452Z,43.45
2022-10-31T19:13:21.086Z,33.42
2022-10-31T19:15:22.755Z,29.40
2022-10-31T19:17:26.119Z,24.48
2022-10-31T19:19:27.727Z,29.17
2022-10-31T19:21:29.497Z,23.80
2022-10-31T19:23:33.902Z,23.05
2022-10-31T19:25:35.679Z,22.58
2022-10-31T19:27:37.364Z,23.13
2022-10-31T19:29:39.168Z,21.73
2022-10-31T19:31:40.922Z,28.08
2022-10-31T19:33:43.882Z,23.73
2022-10-31T19:35:45.613Z,24.10
2022-10-31T19:37:49.701Z,23.05
2022-10-31T19:39:51.866Z,24.83
2022-10-31T19:41:53.509Z,24.83
2022-10-31T19:43:55.586Z,33.15
2022-10-31T19:45:58.531Z,24.85
2022-10-31T19:48:00.676Z,22.17
2022-10-31T19:50:06.340Z,28.20
2022-10-31T19:52:08.054Z,23.13
2022-10-31T19:54:10.799Z,22.08
2022-10-31T19:56:14.425Z,24.02
2022-10-31T19:58:16.117Z,24.00
2022-10-31T20:00:20.792Z,24.45
2022-10-31T20:02:22.419Z,22.15
2022-10-31T20:04:24.031Z,24.08
2022-10-31T20:06:29.012Z,23.33
2022-10-31T20:08:30.607Z,26.42
2022-10-31T20:10:35.024Z,23.50
2022-10-31T20:12:36.591Z,24.33
2022-10-31T20:14:38.130Z,26.48
2022-10-31T20:16:39.694Z,23.65
2022-10-31T20:18:41.825Z,25.08
2022-10-31T20:20:46.437Z,23.85
2022-10-31T20:22:49.435Z,24.60
2022-10-31T20:24:53.989Z,22.75
2022-10-31T20:26:55.518Z,26.92
2022-10-31T20:28:57.862Z,27.23
2022-10-31T20:31:00.124Z,23.10
2022-10-31T20:33:01.780Z,27.38
2022-10-31T20:35:03.708Z,25.15
2022-10-31T20:37:05.505Z,23.25
2022-10-31T20:39:08.747Z,23.90
2022-10-31T20:41:11.299Z,24.88
2022-10-31T20:43:12.956Z,26.73
2022-10-31T20:45:14.590Z,24.52
2022-10-31T20:47:16.102Z,24.38
2022-10-31T20:49:17.666Z,22.60
2022-10-31T20:51:21.253Z,27.30
2022-10-31T20:53:22.839Z,25.15
2022-10-31T20:55:25.833Z,29.48
2022-10-31T20:57:27.426Z,23.73
2022-10-31T20:59:29.047Z,23.55
2022-10-31T21:01:32.350Z,24.55
2022-10-31T21:03:34.091Z,27.75
2022-10-31T21:05:35.612Z,24.85
2022-10-31T21:07:37.218Z,25.15
2022-10-31T21:09:38.988Z,23.95
2022-10-31T21:11:41.981Z,25.88
2022-10-31T21:13:45.053Z,24.40
2022-10-31T21:15:46.923Z,26.73
2022-10-31T21:17:48.438Z,26.10
2022-10-31T21:19:49.987Z,35.55
2022-10-31T21:21:51.521Z,24.77
2022-10-31T21:23:54.711Z,25.17
2022-10-31T21:25:56.485Z,24.38
2022-10-31T21:27:59.686Z,25.35
2022-10-31T21:30:01.511Z,26.08
2022-10-31T21:32:06.264Z,24.90
2022-10-31T21:34:10.336Z,27.25
2022-10-31T21:36:12.351Z,26.63
2022-10-31T21:38:14.104Z,26.85
2022-10-31T21:40:15.640Z,25.67
2022-10-31T21:42:21.346Z,27.25
2022-10-31T21:44:27.218Z,26.77
2022-10-31T21:46:31.224Z,27.20
2022-10-31T21:48:33.338Z,28.35
2022-10-31T21:50:35.344Z,26.70
2022-10-31T21:52:39.584Z,26.00
2022-10-31T21:54:41.137Z,27.30
2022-10-31T21:56:43.156Z,28.20
2022-10-31T21:58:45.209Z,28.92
2022-10-31T22:00:48.088Z,28.90
2022-10-31T22:02:49.653Z,27.15
2022-10-31T22:04:51.278Z,27.75
2022-10-31T22:06:53.158Z,30.35
2022-10-31T22:08:54.874Z,28.33
2022-10-31T22:10:56.459Z,27.25
2022-10-31T22:12:57.945Z,29.40
2022-10-31T22:14:59.524Z,27.02
2022-10-31T22:17:02.501Z,27.88
2022-10-31T22:19:05.293Z,25.60
2022-10-31T22:21:09.530Z,27.73
2022-10-31T22:23:11.066Z,24.88
2022-10-31T22:25:12.578Z,27.23
2022-10-31T22:27:14.109Z,30.05
2022-10-31T22:29:17.198Z,25.85
2022-10-31T22:31:20.525Z,27.42
2022-10-31T22:33:23.911Z,32.08
2022-10-31T22:35:25.613Z,27.63
2022-10-31T22:37:27.166Z,24.88
2022-10-31T22:39:28.911Z,28.63
2022-10-31T22:41:32.969Z,25.35
2022-10-31T22:43:34.609Z,24.73
2022-10-31T22:45:36.132Z,25.27
2022-10-31T22:49:47.695Z,25.77
2022-10-31T22:51:51.206Z,24.92
2022-10-31T22:53:52.983Z,24.63
2022-10-31T22:55:54.474Z,23.92
2022-10-31T22:57:55.967Z,25.58
2022-10-31T22:59:57.524Z,24.73
2022-10-31T23:01:59.345Z,25.35
2022-10-31T23:04:03.378Z,24.98
2022-10-31T23:06:07.554Z,24.45
2022-10-31T23:08:09.047Z,26.10
2022-10-31T23:10:10.605Z,25.88
2022-10-31T23:12:12.078Z,24.75
2022-10-31T23:14:16.444Z,24.67
2022-10-31T23:16:18.142Z,23.48
2022-10-31T23:18:47.929Z,25.85
2022-10-31T23:20:50.808Z,24.83
2022-10-31T23:22:53.699Z,22.65
2022-10-31T23:24:55.416Z,23.30
2022-10-31T23:26:58.156Z,24.35
2022-10-31T23:28:59.695Z,23.77
2022-10-31T23:31:01.301Z,22.35
2022-10-31T23:33:03.108Z,24.08
2022-10-31T23:35:06.906Z,24.58
2022-10-31T23:39:19.950Z,23.05
2022-10-31T23:41:24.327Z,24.25
2022-10-31T23:43:25.824Z,22.70
2022-10-31T23:45:27.350Z,23.08
2022-10-31T23:47:28.945Z,22.88
2022-10-31T23:49:30.669Z,22.90
2022-10-31T23:51:32.329Z,22.63
2022-10-31T23:53:33.848Z,23.13
2022-10-31T23:55:37.086Z,21.95
2022-10-31T23:57:38.706Z,22.33
2022-10-31T23:59:40.425Z,21.27
